createdAt,value
2024-04-07T22:22:02.880Z,13.38
2024-04-07T22:24:29.732Z,13.38
2024-04-07T22:27:00.879Z,13.39
2024-04-07T22:29:27.757Z,13.40
2024-04-07T22:31:55.909Z,13.39
2024-04-07T22:34:22.758Z,13.38
2024-04-07T22:36:49.668Z,13.36
2024-04-07T22:39:16.502Z,13.36
2024-04-07T22:41:43.355Z,13.38
2024-04-07T22:44:10.839Z,13.38
2024-04-07T22:46:37.814Z,13.37
2024-04-07T22:49:04.793Z,13.36
2024-04-07T22:51:32.748Z,13.35
2024-04-07T22:53:59.597Z,13.32
2024-04-07T22:56:26.523Z,13.31
2024-04-07T22:58:54.118Z,13.27
2024-04-07T23:01:20.916Z,13.25
2024-04-07T23:03:47.831Z,13.22
2024-04-07T23:06:14.781Z,13.17
2024-04-07T23:08:41.734Z,13.12
2024-04-07T23:11:10.100Z,13.05
2024-04-07T23:13:37.046Z,12.99
2024-04-07T23:16:08.564Z,12.92
2024-04-07T23:18:36.843Z,12.83
2024-04-07T23:21:13.806Z,12.76
2024-04-07T23:23:44.542Z,12.69
2024-04-07T23:26:11.856Z,12.63
2024-04-07T23:28:39.558Z,12.58
2024-04-07T23:31:07.133Z,12.52
2024-04-07T23:33:34.994Z,12.46
2024-04-07T23:36:06.710Z,12.41
2024-04-07T23:38:34.559Z,12.38
2024-04-07T23:41:01.640Z,12.38
2024-04-07T23:43:28.556Z,12.36
2024-04-07T23:45:55.552Z,12.34
2024-04-07T23:48:24.460Z,12.31
2024-04-07T23:50:51.352Z,12.31
2024-04-07T23:53:18.240Z,12.30
2024-04-07T23:55:46.921Z,12.29
2024-04-07T23:58:13.875Z,12.27
